createdAt,value
2019-06-26T00:00:08.414Z,11.75
2019-06-26T00:02:37.089Z,12.90
2019-06-26T00:05:07.170Z,12.07
2019-06-26T00:07:35.861Z,12.40
2019-06-26T00:10:06.668Z,12.58
2019-06-26T00:12:35.100Z,11.55
2019-06-26T00:15:05.840Z,11.12
2019-06-26T00:17:34.288Z,12.85
2019-06-26T00:20:02.983Z,12.75
2019-06-26T00:22:31.425Z,12.65
2019-06-26T00:25:00.139Z,11.65
2019-06-26T00:27:28.721Z,13.43
2019-06-26T00:29:57.176Z,12.82
2019-06-26T00:32:25.698Z,13.95
2019-06-26T00:34:54.131Z,13.48
2019-06-26T00:37:22.608Z,13.08
2019-06-26T00:39:51.270Z,13.62
2019-06-26T00:42:19.951Z,13.05
2019-06-26T00:44:48.402Z,12.13
2019-06-26T00:47:17.116Z,12.10
2019-06-26T00:49:45.638Z,13.53
2019-06-26T00:52:14.081Z,12.78
2019-06-26T00:54:42.514Z,12.75
2019-06-26T00:57:11.217Z,13.83
2019-06-26T00:59:39.907Z,12.93
2019-06-26T01:02:08.843Z,13.55
2019-06-26T01:04:38.922Z,13.78
2019-06-26T01:07:07.387Z,13.13
2019-06-26T01:09:36.071Z,13.55
2019-06-26T01:12:04.767Z,14.55
2019-06-26T01:14:33.507Z,14.83
2019-06-26T01:17:02.267Z,14.35
2019-06-26T01:19:30.737Z,15.63
2019-06-26T01:21:59.181Z,14.03
2019-06-26T01:24:27.617Z,14.10
2019-06-26T01:26:56.061Z,13.65
2019-06-26T01:29:24.749Z,14.20
2019-06-26T01:31:53.195Z,13.48
2019-06-26T03:45:24.585Z,18.30
2019-06-26T03:47:41.038Z,17.00
2019-06-26T03:50:09.802Z,21.05
2019-06-26T03:52:38.618Z,20.02
2019-06-26T03:55:07.794Z,19.32
2019-06-26T03:57:36.235Z,18.07
2019-06-26T04:00:07.040Z,21.55
2019-06-26T04:02:35.734Z,20.45
2019-06-26T04:05:06.004Z,20.68
2019-06-26T04:07:34.525Z,20.35
2019-06-26T04:10:03.918Z,22.13
2019-06-26T04:12:32.499Z,20.20
2019-06-26T04:15:00.969Z,19.75
2019-06-26T04:17:29.653Z,20.27
2019-06-26T04:19:58.090Z,20.02
2019-06-26T04:22:26.772Z,20.75
2019-06-26T04:24:55.436Z,19.48
2019-06-26T04:27:23.884Z,19.85
2019-06-26T04:29:52.304Z,19.50
2019-06-26T04:32:20.761Z,18.02
2019-06-26T04:34:49.199Z,17.73
2019-06-26T04:37:17.639Z,18.02
2019-06-26T04:39:46.074Z,17.12
2019-06-26T04:42:14.508Z,14.75
2019-06-26T04:44:42.951Z,15.85
2019-06-26T04:47:11.638Z,15.15
2019-06-26T04:49:40.405Z,15.43
2019-06-26T04:52:08.823Z,15.05
2019-06-26T04:54:37.259Z,14.87
2019-06-26T04:57:05.768Z,13.85
2019-06-26T04:59:34.284Z,14.13
2019-06-26T05:02:02.736Z,13.62
2019-06-26T05:04:31.331Z,12.70
2019-06-26T05:06:59.772Z,12.65
2019-06-26T05:09:28.226Z,13.70
2019-06-26T05:11:56.976Z,12.07
2019-06-26T05:14:25.434Z,12.80
2019-06-26T05:16:53.878Z,13.10
2019-06-26T05:19:22.376Z,11.22
2019-06-26T05:21:50.824Z,12.60
2019-06-26T05:24:20.128Z,12.90
2019-06-26T05:26:48.977Z,13.00
2019-06-26T05:29:17.754Z,11.88
2019-06-26T05:31:46.328Z,13.72
2019-06-26T05:34:15.137Z,13.10
2019-06-26T05:36:43.585Z,13.80
2019-06-26T05:39:12.082Z,13.78
2019-06-26T05:41:40.785Z,12.98
2019-06-26T05:44:09.573Z,12.25
2019-06-26T05:46:38.026Z,13.85
2019-06-26T05:49:06.454Z,12.65
2019-06-26T05:51:34.920Z,14.23
2019-06-26T05:54:03.353Z,14.93
2019-06-26T05:56:32.174Z,13.28
2019-06-26T05:59:00.874Z,13.40
2019-06-26T06:01:29.297Z,12.75
2019-06-26T06:03:57.736Z,12.07
2019-06-26T06:06:41.193Z,11.93
2019-06-26T06:08:59.045Z,12.00
2019-06-26T06:11:28.193Z,12.35
2019-06-26T06:16:46.239Z,11.50
2019-06-26T06:19:01.500Z,10.63
2019-06-26T06:21:29.948Z,11.22
2019-06-26T06:23:58.388Z,11.10
2019-06-26T06:26:26.813Z,11.73
2019-06-26T06:28:55.291Z,10.68
2019-06-26T06:31:23.766Z,10.25
2019-06-26T06:33:52.219Z,10.55
2019-06-26T06:36:20.722Z,10.40
2019-06-26T06:38:49.451Z,8.13
2019-06-26T06:41:17.868Z,9.58
2019-06-26T06:43:46.314Z,9.40
2019-06-26T06:46:14.864Z,8.65
2019-06-26T06:48:43.458Z,8.63
2019-06-26T06:51:12.027Z,8.13
2019-06-26T06:53:40.558Z,8.23
2019-06-26T06:56:09.096Z,7.70
2019-06-26T06:58:37.552Z,7.25
2019-06-26T07:01:05.969Z,8.35
2019-06-26T07:03:34.652Z,7.58
2019-06-26T07:06:03.388Z,7.75
2019-06-26T07:08:31.895Z,7.60
2019-06-26T07:11:00.332Z,7.17
2019-06-26T07:13:28.768Z,7.30
2019-06-26T07:15:57.209Z,8.05
2019-06-26T07:18:25.985Z,7.12
2019-06-26T07:20:54.408Z,7.17
2019-06-26T07:23:23.077Z,7.22
2019-06-26T07:25:51.848Z,7.50
2019-06-26T07:28:20.339Z,7.03
2019-06-26T07:30:48.886Z,6.53
2019-06-26T07:33:17.323Z,7.00
2019-06-26T07:35:45.822Z,6.40
2019-06-26T07:38:14.666Z,6.03
2019-06-26T07:40:43.489Z,6.40
2019-06-26T07:43:12.007Z,6.70
2019-06-26T07:45:40.525Z,6.20
2019-06-26T07:48:08.952Z,6.62
2019-06-26T07:50:37.685Z,6.15
2019-06-26T07:53:06.104Z,6.40
2019-06-26T07:55:34.547Z,7.17
2019-06-26T07:58:02.977Z,6.95
2019-06-26T08:00:32.006Z,6.28
2019-06-26T08:03:04.031Z,7.37
2019-06-26T08:05:30.790Z,6.97
2019-06-26T08:07:59.607Z,6.45
2019-06-26T08:10:28.307Z,6.72
2019-06-26T08:12:56.881Z,8.00
2019-06-26T08:15:25.367Z,6.58
2019-06-26T08:18:00.642Z,7.55
2019-06-26T08:20:24.320Z,7.15
2019-06-26T08:22:52.748Z,8.03
2019-06-26T08:25:21.176Z,7.17
2019-06-26T08:27:50.326Z,7.00
2019-06-26T08:30:19.089Z,6.65
2019-06-26T08:32:47.805Z,6.95
2019-06-26T08:35:16.825Z,8.10
2019-06-26T08:37:45.889Z,7.35
2019-06-26T08:40:14.454Z,7.20
2019-06-26T08:42:43.267Z,6.95
2019-06-26T08:45:11.820Z,8.18
2019-06-26T08:47:40.269Z,10.23
2019-06-26T08:50:10.133Z,7.37
2019-06-26T08:52:38.567Z,7.60
2019-06-26T08:55:08.042Z,8.43
2019-06-26T08:57:36.723Z,9.30
2019-06-26T09:00:09.705Z,8.98
2019-06-26T09:02:38.140Z,8.15
2019-06-26T09:05:07.418Z,10.88
2019-06-26T09:07:35.918Z,8.60
2019-06-26T09:10:08.766Z,9.05
2019-06-26T09:12:37.187Z,7.92
2019-06-26T09:15:08.663Z,10.40
2019-06-26T09:17:37.167Z,9.00
2019-06-26T09:20:06.258Z,8.28
2019-06-26T09:22:34.956Z,8.53
2019-06-26T09:25:20.185Z,8.63
2019-06-26T09:27:34.996Z,7.87
2019-06-26T09:30:05.416Z,7.87
2019-06-26T09:32:34.098Z,8.33
2019-06-26T09:35:02.609Z,8.13
2019-06-26T09:37:31.052Z,8.58
2019-06-26T09:39:59.837Z,9.75
2019-06-26T09:42:28.528Z,8.93
2019-06-26T09:44:57.325Z,9.05
2019-06-26T09:47:25.819Z,9.73
2019-06-26T09:49:54.269Z,8.23
2019-06-26T09:52:22.694Z,8.83
2019-06-26T09:54:51.130Z,8.23
2019-06-26T09:57:19.560Z,8.68
2019-06-26T09:59:48.308Z,8.75
2019-06-26T10:02:16.734Z,8.95
2019-06-26T10:04:45.230Z,8.80
2019-06-26T10:07:13.664Z,9.08
2019-06-26T10:09:42.104Z,8.40
2019-06-26T10:12:10.819Z,8.15
2019-06-26T10:14:47.512Z,8.03
2019-06-26T10:17:09.410Z,8.45
2019-06-26T10:19:38.215Z,9.05
2019-06-26T10:22:06.721Z,8.45
2019-06-26T10:24:35.246Z,8.18
2019-06-26T10:27:03.723Z,8.75
2019-06-26T10:29:32.168Z,7.65
2019-06-26T10:32:00.940Z,8.58
2019-06-26T10:34:29.390Z,8.10
2019-06-26T10:36:57.822Z,7.67
2019-06-26T10:39:26.309Z,8.18
2019-06-26T10:41:55.259Z,8.13
2019-06-26T10:44:24.151Z,6.62
2019-06-26T10:46:52.927Z,7.03
2019-06-26T10:49:27.202Z,6.92
2019-06-26T10:51:51.588Z,5.72
2019-06-26T10:54:20.020Z,5.97
2019-06-26T10:56:48.524Z,6.10
2019-06-26T10:59:16.952Z,4.97
2019-06-26T11:01:45.394Z,5.47
2019-06-26T11:04:13.902Z,5.08
2019-06-26T11:06:42.731Z,6.30
2019-06-26T11:09:11.177Z,5.50
2019-06-26T11:11:40.018Z,5.35
2019-06-26T11:14:08.517Z,6.30
2019-06-26T11:16:37.271Z,5.00
2019-06-26T11:19:05.701Z,5.00
2019-06-26T11:21:34.160Z,5.50
2019-06-26T11:24:02.625Z,4.60
2019-06-26T11:26:31.064Z,4.90
2019-06-26T11:28:59.489Z,5.78
2019-06-26T11:31:27.934Z,5.72
2019-06-26T11:33:56.352Z,6.35
2019-06-26T11:36:24.881Z,5.65
2019-06-26T11:38:53.309Z,5.72
2019-06-26T11:41:21.744Z,5.53
2019-06-26T11:43:50.421Z,5.22
2019-06-26T11:46:19.252Z,5.35
2019-06-26T11:48:47.698Z,7.55
2019-06-26T11:51:16.150Z,5.25
2019-06-26T11:53:44.586Z,5.53
2019-06-26T11:56:13.011Z,5.87
2019-06-26T11:58:41.464Z,5.75
2019-06-26T12:01:10.239Z,6.33
2019-06-26T12:03:38.679Z,5.75
2019-06-26T12:06:17.881Z,5.60
2019-06-26T12:08:37.292Z,5.22
2019-06-26T12:11:05.782Z,5.72
2019-06-26T12:13:34.240Z,5.50
2019-06-26T12:16:02.908Z,5.70
2019-06-26T12:18:31.678Z,5.70
2019-06-26T12:21:00.135Z,5.45
2019-06-26T12:23:28.916Z,5.45
2019-06-26T12:25:57.397Z,5.28
2019-06-26T12:28:25.871Z,5.58
2019-06-26T12:30:54.286Z,5.87
2019-06-26T12:33:22.729Z,6.33
2019-06-26T12:35:51.439Z,5.30
2019-06-26T12:38:19.877Z,6.47
2019-06-26T12:40:48.299Z,5.10
2019-06-26T12:43:16.954Z,5.25
2019-06-26T12:45:45.377Z,5.70
2019-06-26T12:48:16.121Z,5.55
2019-06-26T12:50:44.262Z,5.65
2019-06-26T12:53:12.704Z,6.15
2019-06-26T12:55:41.437Z,5.20
2019-06-26T12:58:14.095Z,5.25
2019-06-26T13:00:40.759Z,5.50
2019-06-26T13:03:09.168Z,4.75
2019-06-26T13:05:37.615Z,5.60
2019-06-26T13:08:06.407Z,5.47
2019-06-26T13:10:48.466Z,4.70
2019-06-26T13:13:05.308Z,5.22
2019-06-26T13:15:34.130Z,5.58
2019-06-26T13:18:02.561Z,5.08
2019-06-26T13:20:31.007Z,5.08
2019-06-26T13:22:59.423Z,5.10
2019-06-26T13:25:27.865Z,4.95
2019-06-26T13:27:56.316Z,4.83
2019-06-26T13:30:33.460Z,5.25
2019-06-26T13:33:01.881Z,4.12
2019-06-26T13:35:30.567Z,4.08
2019-06-26T13:37:58.990Z,4.40
2019-06-26T13:40:27.424Z,4.40
2019-06-26T13:42:55.857Z,4.05
2019-06-26T13:45:24.296Z,4.35
2019-06-26T13:47:52.726Z,4.65
2019-06-26T13:50:21.395Z,4.40
2019-06-26T13:52:50.135Z,3.87
2019-06-26T13:55:18.927Z,4.83
2019-06-26T13:57:47.437Z,4.40
2019-06-26T14:00:16.054Z,4.62
2019-06-26T14:02:44.860Z,4.90
2019-06-26T14:05:13.589Z,4.42
2019-06-26T14:07:42.081Z,5.10
2019-06-26T14:10:10.973Z,4.67
2019-06-26T14:12:39.384Z,4.90
2019-06-26T14:15:08.472Z,5.55
2019-06-26T14:17:37.195Z,5.45
2019-06-26T14:20:06.257Z,5.53
2019-06-26T14:22:34.972Z,5.78
2019-06-26T14:25:03.977Z,5.35
2019-06-26T14:27:32.404Z,5.50
2019-06-26T14:30:00.904Z,6.17
2019-06-26T14:32:29.649Z,5.12
2019-06-26T14:34:58.419Z,4.92
2019-06-26T14:37:26.905Z,5.03
2019-06-26T14:39:55.417Z,5.28
2019-06-26T14:42:24.164Z,5.17
2019-06-26T14:44:52.920Z,5.10
2019-06-26T14:47:21.368Z,4.42
2019-06-26T14:49:49.852Z,4.40
2019-06-26T14:52:18.700Z,5.28
2019-06-26T14:54:47.393Z,4.78
2019-06-26T14:57:15.844Z,4.58
2019-06-26T14:59:44.777Z,4.30
2019-06-26T15:02:13.558Z,4.37
2019-06-26T15:04:45.189Z,4.75
2019-06-26T15:07:12.448Z,4.53
2019-06-26T15:09:41.349Z,4.35
2019-06-26T15:12:09.962Z,4.15
2019-06-26T15:14:38.705Z,4.40
2019-06-26T15:17:07.494Z,4.87
2019-06-26T15:19:35.939Z,4.35
2019-06-26T15:22:04.697Z,4.75
2019-06-26T15:24:33.458Z,4.70
2019-06-26T15:27:01.985Z,4.35
2019-06-26T15:29:30.682Z,4.12
2019-06-26T15:31:59.381Z,4.42
2019-06-26T15:34:28.094Z,4.60
2019-06-26T15:40:38.287Z,4.75
2019-06-26T15:43:07.086Z,4.20
2019-06-26T15:45:35.813Z,4.30
2019-06-26T15:48:04.309Z,4.30
2019-06-26T15:50:32.769Z,4.17
2019-06-26T15:53:01.204Z,3.75
2019-06-26T15:55:30.001Z,3.67
2019-06-26T15:57:58.734Z,3.55
2019-06-26T16:00:27.186Z,3.95
2019-06-26T16:02:55.693Z,3.33
2019-06-26T16:05:24.418Z,3.60
2019-06-26T16:07:53.215Z,3.87
2019-06-26T16:10:21.722Z,3.60
2019-06-26T16:12:50.145Z,3.65
2019-06-26T16:15:19.067Z,3.20
2019-06-26T16:17:54.941Z,3.12
2019-06-26T16:20:23.639Z,3.10
2019-06-26T16:22:52.066Z,3.02
2019-06-26T16:25:20.757Z,2.70
2019-06-26T16:28:04.241Z,2.92
2019-06-26T16:30:19.808Z,2.62
2019-06-26T16:32:48.298Z,3.17
2019-06-26T16:35:16.882Z,2.95
2019-06-26T16:37:45.636Z,3.10
2019-06-26T16:40:14.293Z,3.52
2019-06-26T16:42:42.969Z,3.52
2019-06-26T16:45:11.816Z,4.30
2019-06-26T16:47:40.512Z,3.80
2019-06-26T16:50:09.462Z,4.33
2019-06-26T16:52:48.413Z,4.30
2019-06-26T16:55:08.534Z,4.05
2019-06-26T16:57:36.982Z,4.33
2019-06-26T17:00:10.234Z,5.00
2019-06-26T17:02:39.185Z,4.75
2019-06-26T17:05:08.214Z,4.95
2019-06-26T17:07:36.907Z,4.10
2019-06-26T17:10:07.078Z,3.12
2019-06-26T17:12:35.537Z,2.98
2019-06-26T17:15:08.474Z,2.72
2019-06-26T17:17:36.911Z,3.22
2019-06-26T17:20:05.676Z,3.37
2019-06-26T17:22:34.363Z,3.60
2019-06-26T17:25:02.809Z,3.10
2019-06-26T17:27:31.481Z,3.33
2019-06-26T17:29:59.929Z,3.40
2019-06-26T17:32:28.704Z,3.27
2019-06-26T17:34:57.419Z,3.20
2019-06-26T17:37:25.850Z,3.98
2019-06-26T17:39:54.309Z,3.83
2019-06-26T17:42:23.006Z,3.60
2019-06-26T17:44:51.445Z,3.77
2019-06-26T17:47:19.873Z,3.67
2019-06-26T17:49:48.412Z,3.67
2019-06-26T17:52:16.820Z,3.30
2019-06-26T17:54:45.559Z,3.12
2019-06-26T17:57:14.246Z,3.27
2019-06-26T17:59:42.682Z,3.33
2019-06-26T18:02:11.157Z,3.60
2019-06-26T18:04:39.707Z,3.80
2019-06-26T18:07:08.137Z,3.10
2019-06-26T18:09:36.573Z,3.70
2019-06-26T18:12:05.064Z,3.27
2019-06-26T18:14:33.770Z,3.87
2019-06-26T18:17:02.472Z,3.87
2019-06-26T18:19:30.986Z,4.60
2019-06-26T18:21:59.417Z,4.33
2019-06-26T18:24:27.888Z,4.92
2019-06-26T18:26:56.446Z,4.87
2019-06-26T18:29:25.134Z,4.85
2019-06-26T18:31:53.575Z,4.25
2019-06-26T18:34:22.006Z,5.80
2019-06-26T18:36:50.450Z,4.67
2019-06-26T18:39:18.886Z,5.47
2019-06-26T18:41:47.598Z,5.05
2019-06-26T18:44:16.033Z,5.95
2019-06-26T18:46:44.727Z,4.90
2019-06-26T18:49:13.165Z,6.33
2019-06-26T18:51:41.613Z,6.37
2019-06-26T18:54:10.239Z,6.50
2019-06-26T18:56:38.671Z,6.20
2019-06-26T18:59:07.374Z,5.05
2019-06-26T19:01:36.049Z,3.85
2019-06-26T19:04:04.873Z,4.30
2019-06-26T19:06:33.661Z,4.28
2019-06-26T19:09:02.288Z,4.15
2019-06-26T19:11:30.804Z,4.53
2019-06-26T19:13:59.319Z,6.17
2019-06-26T19:16:27.750Z,5.72
2019-06-26T19:18:56.540Z,3.95
2019-06-26T19:21:25.033Z,4.12
2019-06-26T19:24:05.997Z,4.80
2019-06-26T19:26:23.942Z,4.35
2019-06-26T19:28:52.473Z,5.55
2019-06-26T19:31:20.977Z,6.67
2019-06-26T19:33:49.701Z,6.95
2019-06-26T19:36:18.422Z,6.45
2019-06-26T19:38:47.166Z,7.12
2019-06-26T19:41:15.625Z,7.90
2019-06-26T19:43:44.381Z,7.03
2019-06-26T19:46:12.857Z,7.37
2019-06-26T19:48:41.291Z,7.70
2019-06-26T19:51:09.749Z,7.15
2019-06-26T19:53:38.494Z,7.37
2019-06-26T19:56:06.927Z,8.70
2019-06-26T19:58:35.379Z,6.97
2019-06-26T20:01:03.903Z,7.50
2019-06-26T20:03:32.393Z,7.60
2019-06-26T20:06:00.824Z,8.03
2019-06-26T20:08:29.517Z,7.78
2019-06-26T20:10:57.975Z,8.05
2019-06-26T20:13:26.417Z,9.70
2019-06-26T20:15:55.113Z,9.15
2019-06-26T20:18:23.559Z,9.45
2019-06-26T20:20:52.009Z,9.13
2019-06-26T20:23:20.730Z,8.20
2019-06-26T20:25:49.178Z,7.42
2019-06-26T20:28:17.656Z,7.00
2019-06-26T20:30:46.097Z,6.42
2019-06-26T20:33:14.782Z,6.15
2019-06-26T20:35:43.217Z,5.12
2019-06-26T20:38:11.980Z,4.30
2019-06-26T20:40:40.670Z,4.17
2019-06-26T20:43:09.117Z,5.25
2019-06-26T20:45:37.558Z,4.20
2019-06-26T20:48:06.234Z,5.50
2019-06-26T20:50:34.673Z,3.95
2019-06-26T20:53:03.379Z,4.20
2019-06-26T20:55:32.162Z,4.37
2019-06-26T20:58:00.588Z,3.90
2019-06-26T21:00:29.025Z,3.75
2019-06-26T21:02:57.815Z,3.80
2019-06-26T21:05:28.767Z,3.40
2019-06-26T21:07:56.729Z,3.95
2019-06-26T21:10:25.182Z,3.80
2019-06-26T21:12:53.657Z,4.17
2019-06-26T21:15:22.383Z,3.60
2019-06-26T21:17:50.811Z,3.83
2019-06-26T21:20:19.291Z,3.30
2019-06-26T21:22:47.773Z,3.10
2019-06-26T21:25:18.748Z,3.00
2019-06-26T21:27:46.724Z,3.25
2019-06-26T21:30:15.552Z,3.25
2019-06-26T21:32:43.987Z,3.50
2019-06-26T21:35:12.578Z,3.62
2019-06-26T21:37:41.144Z,3.17
2019-06-26T21:40:10.074Z,4.03
2019-06-26T21:42:38.743Z,3.27
2019-06-26T21:45:07.764Z,3.55
2019-06-26T21:47:36.197Z,3.67
2019-06-26T21:50:06.644Z,3.12
2019-06-26T21:52:35.065Z,3.83
2019-06-26T21:55:04.173Z,3.75
2019-06-26T21:57:32.602Z,3.47
2019-06-26T22:00:01.041Z,3.90
2019-06-26T22:02:29.724Z,4.17
2019-06-26T22:04:58.229Z,3.27
2019-06-26T22:07:27.136Z,3.35
2019-06-26T22:09:55.926Z,3.70
2019-06-26T22:12:24.353Z,4.10
2019-06-26T22:14:53.122Z,3.80
2019-06-26T22:17:21.569Z,4.12
2019-06-26T22:19:50.006Z,3.87
2019-06-26T22:22:18.689Z,4.37
2019-06-26T22:24:47.133Z,3.77
2019-06-26T22:27:15.898Z,5.03
2019-06-26T22:29:44.694Z,4.28
2019-06-26T22:32:13.116Z,3.98
2019-06-26T22:34:41.861Z,3.95
2019-06-26T22:37:10.553Z,3.65
2019-06-26T22:39:39.250Z,3.65
2019-06-26T22:42:07.699Z,4.87
2019-06-26T22:44:36.129Z,4.60
2019-06-26T22:47:04.574Z,4.15
2019-06-26T22:49:33.010Z,4.25
2019-06-26T22:52:02.842Z,4.50
2019-06-26T22:54:31.868Z,4.92
2019-06-26T22:57:00.520Z,4.20
2019-06-26T22:59:28.954Z,4.20
2019-06-26T23:01:57.422Z,4.20
2019-06-26T23:04:25.845Z,4.30
2019-06-26T23:06:54.578Z,3.90
2019-06-26T23:09:23.361Z,4.67
2019-06-26T23:11:52.182Z,3.52
2019-06-26T23:14:20.661Z,4.10
2019-06-26T23:16:49.089Z,3.47
2019-06-26T23:19:17.810Z,4.53
2019-06-26T23:21:46.590Z,4.75
2019-06-26T23:24:15.384Z,4.28
2019-06-26T23:26:43.805Z,3.77
2019-06-26T23:29:12.550Z,3.75
2019-06-26T23:31:40.976Z,5.37
2019-06-26T23:34:09.718Z,4.25
2019-06-26T23:36:38.136Z,3.95
2019-06-26T23:39:06.577Z,3.75
2019-06-26T23:41:35.013Z,4.03
2019-06-26T23:44:03.453Z,3.90
2019-06-26T23:46:32.533Z,3.58
2019-06-26T23:49:00.964Z,3.95
2019-06-26T23:51:29.738Z,3.95
2019-06-26T23:53:58.235Z,4.10
2019-06-26T23:56:39.577Z,3.85
2019-06-26T23:58:56.820Z,3.42
